sensor_id;sensor_type;location;lat;lon;timestamp;temperature;humidity
10702;DHT22;5402;50.004;8.246;2023-04-15T00:00:12;5.20;99.90
10702;DHT22;5402;50.004;8.246;2023-04-15T00:02:41;5.20;99.90
10702;DHT22;5402;50.004;8.246;2023-04-15T00:05:08;5.20;99.90
10702;DHT22;5402;50.004;8.246;2023-04-15T00:07:35;5.20;99.90
10702;DHT22;5402;50.004;8.246;2023-04-15T00:10:03;5.20;99.90
10702;DHT22;5402;50.004;8.246;2023-04-15T00:12:30;5.20;99.90
10702;DHT22;5402;50.004;8.246;2023-04-15T00:14:57;5.20;99.90
10702;DHT22;5402;50.004;8.246;2023-04-15T00:17:23;5.10;99.90
10702;DHT22;5402;50.004;8.246;2023-04-15T00:19:51;5.10;99.90
10702;DHT22;5402;50.004;8.246;2023-04-15T00:22:19;5.00;99.90
10702;DHT22;5402;50.004;8.246;2023-04-15T00:24:45;5.10;99.90
10702;DHT22;5402;50.004;8.246;2023-04-15T00:27:12;5.00;99.90
10702;DHT22;5402;50.004;8.246;2023-04-15T00:29:40;5.00;99.90
10702;DHT22;5402;50.004;8.246;2023-04-15T00:32:07;5.00;99.90
10702;DHT22;5402;50.004;8.246;2023-04-15T00:34:34;4.90;99.90
10702;DHT22;5402;50.004;8.246;2023-04-15T00:37:02;4.90;99.90
10702;DHT22;5402;50.004;8.246;2023-04-15T00:39:29;4.90;99.90
10702;DHT22;5402;50.004;8.246;2023-04-15T00:41:56;4.90;99.90
10702;DHT22;5402;50.004;8.246;2023-04-15T00:44:23;4.80;99.90
10702;DHT22;5402;50.004;8.246;2023-04-15T00:46:50;4.80;99.90
10702;DHT22;5402;50.004;8.246;2023-04-15T00:49:17;4.80;99.90
10702;DHT22;5402;50.004;8.246;2023-04-15T00:51:44;4.70;99.90
10702;DHT22;5402;50.004;8.246;2023-04-15T00:54:12;4.60;99.90
10702;DHT22;5402;50.004;8.246;2023-04-15T00:56:39;4.60;99.90
10702;DHT22;5402;50.004;8.246;2023-04-15T00:59:07;4.60;99.90
10702;DHT22;5402;50.004;8.246;2023-04-15T01:01:35;4.50;99.90
10702;DHT22;5402;50.004;8.246;2023-04-15T01:04:03;4.50;99.90
10702;DHT22;5402;50.004;8.246;2023-04-15T01:06:30;4.50;99.90
10702;DHT22;5402;50.004;8.246;2023-04-15T01:08:58;4.40;99.90
10702;DHT22;5402;50.004;8.246;2023-04-15T01:11:27;4.40;99.90
10702;DHT22;5402;50.004;8.246;2023-04-15T01:13:57;4.30;99.90
10702;DHT22;5402;50.004;8.246;2023-04-15T01:16:24;4.20;99.90
10702;DHT22;5402;50.004;8.246;2023-04-15T01:18:53;4.20;99.90
10702;DHT22;5402;50.004;8.246;2023-04-15T01:21:20;4.30;99.90
10702;DHT22;5402;50.004;8.246;2023-04-15T01:23:48;4.30;99.90
10702;DHT22;5402;50.004;8.246;2023-04-15T01:26:18;4.30;99.90
10702;DHT22;5402;50.004;8.246;2023-04-15T01:28:46;4.30;99.90
10702;DHT22;5402;50.004;8.246;2023-04-15T01:31:14;4.40;99.90
10702;DHT22;5402;50.004;8.246;2023-04-15T01:33:42;4.30;99.90
10702;DHT22;5402;50.004;8.246;2023-04-15T01:36:09;4.40;99.90
10702;DHT22;5402;50.004;8.246;2023-04-15T01:38:36;4.40;99.90
10702;DHT22;5402;50.004;8.246;2023-04-15T01:41:03;4.40;99.90
10702;DHT22;5402;50.004;8.246;2023-04-15T01:43:33;4.40;99.90
10702;DHT22;5402;50.004;8.246;2023-04-15T01:46:00;4.40;99.90
10702;DHT22;5402;50.004;8.246;2023-04-15T01:48:27;4.40;99.90
10702;DHT22;5402;50.004;8.246;2023-04-15T01:50:54;4.40;99.90
10702;DHT22;5402;50.004;8.246;2023-04-15T01:53:22;4.30;99.90
10702;DHT22;5402;50.004;8.246;2023-04-15T01:55:49;4.20;99.90
10702;DHT22;5402;50.004;8.246;2023-04-15T01:58:15;4.10;99.90
10702;DHT22;5402;50.004;8.246;2023-04-15T02:00:43;4.10;99.90
10702;DHT22;5402;50.004;8.246;2023-04-15T02:03:10;4.10;99.90
10702;DHT22;5402;50.004;8.246;2023-04-15T02:05:37;4.00;99.90
10702;DHT22;5402;50.004;8.246;2023-04-15T02:08:04;4.00;99.90
10702;DHT22;5402;50.004;8.246;2023-04-15T02:10:30;4.00;99.90
10702;DHT22;5402;50.004;8.246;2023-04-15T02:12:57;3.80;99.90
10702;DHT22;5402;50.004;8.246;2023-04-15T02:15:24;3.80;99.90
10702;DHT22;5402;50.004;8.246;2023-04-15T02:17:52;3.70;99.90
10702;DHT22;5402;50.004;8.246;2023-04-15T02:20:20;3.80;99.90
10702;DHT22;5402;50.004;8.246;2023-04-15T02:22:47;3.70;99.90
10702;DHT22;5402;50.004;8.246;2023-04-15T02:25:14;3.80;99.90
10702;DHT22;5402;50.004;8.246;2023-04-15T02:27:41;3.80;99.90
10702;DHT22;5402;50.004;8.246;2023-04-15T02:30:08;3.80;99.90
10702;DHT22;5402;50.004;8.246;2023-04-15T02:32:35;3.90;99.90
10702;DHT22;5402;50.004;8.246;2023-04-15T02:35:05;3.80;99.90
10702;DHT22;5402;50.004;8.246;2023-04-15T02:37:35;3.90;99.90
10702;DHT22;5402;50.004;8.246;2023-04-15T02:40:06;3.90;99.90
10702;DHT22;5402;50.004;8.246;2023-04-15T02:42:33;3.90;99.90
10702;DHT22;5402;50.004;8.246;2023-04-15T02:45:00;3.90;99.90
10702;DHT22;5402;50.004;8.246;2023-04-15T02:47:27;3.90;99.90
10702;DHT22;5402;50.004;8.246;2023-04-15T02:49:54;3.80;99.90
10702;DHT22;5402;50.004;8.246;2023-04-15T02:52:24;3.70;99.90
10702;DHT22;5402;50.004;8.246;2023-04-15T02:54:50;3.70;99.90
10702;DHT22;5402;50.004;8.246;2023-04-15T02:57:18;3.60;99.90
10702;DHT22;5402;50.004;8.246;2023-04-15T02:59:45;3.50;99.90
10702;DHT22;5402;50.004;8.246;2023-04-15T03:02:12;3.50;99.90
10702;DHT22;5402;50.004;8.246;2023-04-15T03:04:38;3.50;99.90
10702;DHT22;5402;50.004;8.246;2023-04-15T03:07:06;3.50;99.90
10702;DHT22;5402;50.004;8.246;2023-04-15T03:09:34;3.40;99.90
10702;DHT22;5402;50.004;8.246;2023-04-15T03:12:01;3.40;99.90
10702;DHT22;5402;50.004;8.246;2023-04-15T03:14:28;3.40;99.90
10702;DHT22;5402;50.004;8.246;2023-04-15T03:16:55;3.50;99.90
10702;DHT22;5402;50.004;8.246;2023-04-15T03:19:23;3.50;99.90
10702;DHT22;5402;50.004;8.246;2023-04-15T03:21:50;3.50;99.90
10702;DHT22;5402;50.004;8.246;2023-04-15T03:24:17;3.50;99.90
10702;DHT22;5402;50.004;8.246;2023-04-15T03:26:45;3.50;99.90
10702;DHT22;5402;50.004;8.246;2023-04-15T03:29:12;3.50;99.90
10702;DHT22;5402;50.004;8.246;2023-04-15T03:31:39;3.50;99.90
10702;DHT22;5402;50.004;8.246;2023-04-15T03:34:05;3.50;99.90
10702;DHT22;5402;50.004;8.246;2023-04-15T03:36:32;3.50;99.90
10702;DHT22;5402;50.004;8.246;2023-04-15T03:38:59;3.50;99.90
10702;DHT22;5402;50.004;8.246;2023-04-15T03:41:26;3.50;99.90
10702;DHT22;5402;50.004;8.246;2023-04-15T03:43:55;3.50;99.90
10702;DHT22;5402;50.004;8.246;2023-04-15T03:46:21;3.50;99.90
10702;DHT22;5402;50.004;8.246;2023-04-15T03:48:48;3.60;99.90
10702;DHT22;5402;50.004;8.246;2023-04-15T03:51:15;3.60;99.90
10702;DHT22;5402;50.004;8.246;2023-04-15T03:53:42;3.50;99.90
10702;DHT22;5402;50.004;8.246;2023-04-15T03:56:08;3.50;99.90
10702;DHT22;5402;50.004;8.246;2023-04-15T03:58:35;3.50;99.90
10702;DHT22;5402;50.004;8.246;2023-04-15T04:01:03;3.30;99.90
10702;DHT22;5402;50.004;8.246;2023-04-15T04:03:30;3.20;99.90
10702;DHT22;5402;50.004;8.246;2023-04-15T04:05:57;3.20;99.90
10702;DHT22;5402;50.004;8.246;2023-04-15T04:08:24;3.20;99.90
10702;DHT22;5402;50.004;8.246;2023-04-15T04:10:51;3.20;99.90
10702;DHT22;5402;50.004;8.246;2023-04-15T04:13:18;3.20;99.90
10702;DHT22;5402;50.004;8.246;2023-04-15T04:15:45;3.20;99.90
10702;DHT22;5402;50.004;8.246;2023-04-15T04:18:14;3.20;99.90
10702;DHT22;5402;50.004;8.246;2023-04-15T04:20:41;3.20;99.90
10702;DHT22;5402;50.004;8.246;2023-04-15T04:23:07;3.20;99.90
10702;DHT22;5402;50.004;8.246;2023-04-15T04:25:34;3.20;99.90
10702;DHT22;5402;50.004;8.246;2023-04-15T04:28:02;3.20;99.90
10702;DHT22;5402;50.004;8.246;2023-04-15T04:30:30;3.20;99.90
10702;DHT22;5402;50.004;8.246;2023-04-15T04:32:57;3.20;99.90
10702;DHT22;5402;50.004;8.246;2023-04-15T04:35:25;3.20;99.90
10702;DHT22;5402;50.004;8.246;2023-04-15T04:37:52;3.20;99.90
10702;DHT22;5402;50.004;8.246;2023-04-15T04:40:19;3.20;99.90
10702;DHT22;5402;50.004;8.246;2023-04-15T04:42:46;3.20;99.90
10702;DHT22;5402;50.004;8.246;2023-04-15T04:45:13;3.20;99.90
10702;DHT22;5402;50.004;8.246;2023-04-15T04:47:40;3.10;99.90
10702;DHT22;5402;50.004;8.246;2023-04-15T04:50:07;3.20;99.90
10702;DHT22;5402;50.004;8.246;2023-04-15T04:52:36;3.20;99.90
10702;DHT22;5402;50.004;8.246;2023-04-15T04:55:03;3.30;99.90
10702;DHT22;5402;50.004;8.246;2023-04-15T04:57:30;3.30;99.90
10702;DHT22;5402;50.004;8.246;2023-04-15T04:59:57;3.40;99.90
10702;DHT22;5402;50.004;8.246;2023-04-15T05:02:23;3.40;99.90
10702;DHT22;5402;50.004;8.246;2023-04-15T05:04:51;3.40;99.90
10702;DHT22;5402;50.004;8.246;2023-04-15T05:07:19;3.30;99.90
10702;DHT22;5402;50.004;8.246;2023-04-15T05:09:47;3.40;99.90
10702;DHT22;5402;50.004;8.246;2023-04-15T05:12:14;3.50;99.90
10702;DHT22;5402;50.004;8.246;2023-04-15T05:14:42;3.50;99.90
10702;DHT22;5402;50.004;8.246;2023-04-15T05:17:11;3.50;99.90
10702;DHT22;5402;50.004;8.246;2023-04-15T05:19:38;3.50;99.90
10702;DHT22;5402;50.004;8.246;2023-04-15T05:22:05;3.60;99.90
10702;DHT22;5402;50.004;8.246;2023-04-15T05:24:31;3.60;99.90
10702;DHT22;5402;50.004;8.246;2023-04-15T05:27:00;3.60;99.90
10702;DHT22;5402;50.004;8.246;2023-04-15T05:29:27;3.60;99.90
10702;DHT22;5402;50.004;8.246;2023-04-15T05:31:56;3.70;99.90
10702;DHT22;5402;50.004;8.246;2023-04-15T05:34:23;3.70;99.90
10702;DHT22;5402;50.004;8.246;2023-04-15T05:36:49;3.70;99.90
10702;DHT22;5402;50.004;8.246;2023-04-15T05:39:17;3.70;99.90
10702;DHT22;5402;50.004;8.246;2023-04-15T05:41:43;3.80;99.90
10702;DHT22;5402;50.004;8.246;2023-04-15T05:44:11;3.70;99.90
10702;DHT22;5402;50.004;8.246;2023-04-15T05:46:38;3.70;99.90
10702;DHT22;5402;50.004;8.246;2023-04-15T05:49:05;3.80;99.90
10702;DHT22;5402;50.004;8.246;2023-04-15T05:51:32;3.80;99.90
10702;DHT22;5402;50.004;8.246;2023-04-15T05:53:59;3.90;99.90
10702;DHT22;5402;50.004;8.246;2023-04-15T05:56:25;4.00;99.90
10702;DHT22;5402;50.004;8.246;2023-04-15T05:58:52;4.10;99.90
10702;DHT22;5402;50.004;8.246;2023-04-15T06:01:20;4.20;99.90
10702;DHT22;5402;50.004;8.246;2023-04-15T06:03:47;4.20;99.90
10702;DHT22;5402;50.004;8.246;2023-04-15T06:06:14;4.30;99.90
10702;DHT22;5402;50.004;8.246;2023-04-15T06:08:41;4.40;99.90
10702;DHT22;5402;50.004;8.246;2023-04-15T06:11:08;4.50;99.90
10702;DHT22;5402;50.004;8.246;2023-04-15T06:13:34;4.50;99.90
10702;DHT22;5402;50.004;8.246;2023-04-15T06:16:01;4.50;99.90
10702;DHT22;5402;50.004;8.246;2023-04-15T06:18:29;4.50;99.90
10702;DHT22;5402;50.004;8.246;2023-04-15T06:20:56;4.60;99.90
10702;DHT22;5402;50.004;8.246;2023-04-15T06:23:23;4.70;99.90
10702;DHT22;5402;50.004;8.246;2023-04-15T06:25:50;4.80;99.90
10702;DHT22;5402;50.004;8.246;2023-04-15T06:28:17;4.80;99.90
10702;DHT22;5402;50.004;8.246;2023-04-15T06:30:45;4.90;99.90
10702;DHT22;5402;50.004;8.246;2023-04-15T06:33:11;4.90;99.90
10702;DHT22;5402;50.004;8.246;2023-04-15T06:35:39;5.00;99.90
10702;DHT22;5402;50.004;8.246;2023-04-15T06:38:06;5.10;99.90
10702;DHT22;5402;50.004;8.246;2023-04-15T06:40:33;5.20;99.90
10702;DHT22;5402;50.004;8.246;2023-04-15T06:43:00;5.20;99.90
10702;DHT22;5402;50.004;8.246;2023-04-15T06:45:28;5.30;99.90
10702;DHT22;5402;50.004;8.246;2023-04-15T06:47:54;5.40;99.90
10702;DHT22;5402;50.004;8.246;2023-04-15T06:50:21;5.50;99.90
10702;DHT22;5402;50.004;8.246;2023-04-15T06:52:49;5.60;99.90
10702;DHT22;5402;50.004;8.246;2023-04-15T06:55:16;5.70;99.90
10702;DHT22;5402;50.004;8.246;2023-04-15T06:57:43;5.80;99.90
10702;DHT22;5402;50.004;8.246;2023-04-15T07:00:11;5.90;99.90
10702;DHT22;5402;50.004;8.246;2023-04-15T07:02:38;6.10;99.90
10702;DHT22;5402;50.004;8.246;2023-04-15T07:05:06;6.10;99.90
10702;DHT22;5402;50.004;8.246;2023-04-15T07:07:34;6.30;99.90
10702;DHT22;5402;50.004;8.246;2023-04-15T07:10:03;6.50;99.90
10702;DHT22;5402;50.004;8.246;2023-04-15T07:12:30;6.60;99.90
10702;DHT22;5402;50.004;8.246;2023-04-15T07:14:57;6.70;99.90
10702;DHT22;5402;50.004;8.246;2023-04-15T07:17:23;7.10;99.90
10702;DHT22;5402;50.004;8.246;2023-04-15T07:19:50;7.20;99.90
10702;DHT22;5402;50.004;8.246;2023-04-15T07:22:17;7.40;99.90
10702;DHT22;5402;50.004;8.246;2023-04-15T07:24:44;7.50;99.90
10702;DHT22;5402;50.004;8.246;2023-04-15T07:27:12;7.70;99.90
10702;DHT22;5402;50.004;8.246;2023-04-15T07:29:46;7.90;99.90
10702;DHT22;5402;50.004;8.246;2023-04-15T07:32:13;8.10;99.90
10702;DHT22;5402;50.004;8.246;2023-04-15T07:34:40;8.30;99.90
10702;DHT22;5402;50.004;8.246;2023-04-15T07:37:07;8.50;99.90
10702;DHT22;5402;50.004;8.246;2023-04-15T07:39:34;8.70;99.90
10702;DHT22;5402;50.004;8.246;2023-04-15T07:42:01;8.80;99.90
10702;DHT22;5402;50.004;8.246;2023-04-15T07:44:30;8.80;99.90
10702;DHT22;5402;50.004;8.246;2023-04-15T07:46:57;8.80;99.90
10702;DHT22;5402;50.004;8.246;2023-04-15T07:49:23;8.90;99.90
10702;DHT22;5402;50.004;8.246;2023-04-15T07:51:50;9.00;99.90
10702;DHT22;5402;50.004;8.246;2023-04-15T07:54:17;9.00;99.90
10702;DHT22;5402;50.004;8.246;2023-04-15T07:56:44;9.00;99.90
10702;DHT22;5402;50.004;8.246;2023-04-15T07:59:10;9.10;99.90
10702;DHT22;5402;50.004;8.246;2023-04-15T08:01:39;9.30;99.90
10702;DHT22;5402;50.004;8.246;2023-04-15T08:04:05;9.40;99.90
10702;DHT22;5402;50.004;8.246;2023-04-15T08:06:32;9.70;99.90
10702;DHT22;5402;50.004;8.246;2023-04-15T08:08:59;10.60;99.90
10702;DHT22;5402;50.004;8.246;2023-04-15T08:14:54;12.60;99.90
10702;DHT22;5402;50.004;8.246;2023-04-15T08:17:22;12.60;99.90
10702;DHT22;5402;50.004;8.246;2023-04-15T08:19:49;12.10;99.90
10702;DHT22;5402;50.004;8.246;2023-04-15T08:22:16;11.90;99.90
10702;DHT22;5402;50.004;8.246;2023-04-15T08:24:43;11.10;99.90
10702;DHT22;5402;50.004;8.246;2023-04-15T08:27:10;11.10;99.90
10702;DHT22;5402;50.004;8.246;2023-04-15T08:29:38;11.00;99.90
10702;DHT22;5402;50.004;8.246;2023-04-15T08:32:05;11.10;99.90
10702;DHT22;5402;50.004;8.246;2023-04-15T08:34:33;11.20;99.90
10702;DHT22;5402;50.004;8.246;2023-04-15T08:37:00;11.30;99.90
10702;DHT22;5402;50.004;8.246;2023-04-15T08:39:27;11.50;99.90
10702;DHT22;5402;50.004;8.246;2023-04-15T08:41:59;11.60;99.90
10702;DHT22;5402;50.004;8.246;2023-04-15T08:44:28;11.90;99.90
10702;DHT22;5402;50.004;8.246;2023-04-15T08:46:56;12.20;99.90
10702;DHT22;5402;50.004;8.246;2023-04-15T08:49:26;12.60;99.90
10702;DHT22;5402;50.004;8.246;2023-04-15T08:51:55;12.90;99.90
10702;DHT22;5402;50.004;8.246;2023-04-15T08:54:23;13.10;99.90
10702;DHT22;5402;50.004;8.246;2023-04-15T08:56:51;13.30;99.90
10702;DHT22;5402;50.004;8.246;2023-04-15T08:59:19;13.50;99.90
10702;DHT22;5402;50.004;8.246;2023-04-15T09:01:47;13.60;99.90
10702;DHT22;5402;50.004;8.246;2023-04-15T09:04:15;13.90;99.90
10702;DHT22;5402;50.004;8.246;2023-04-15T09:06:42;13.80;99.90
10702;DHT22;5402;50.004;8.246;2023-04-15T09:09:11;14.00;99.90
10702;DHT22;5402;50.004;8.246;2023-04-15T09:11:38;14.00;99.90
10702;DHT22;5402;50.004;8.246;2023-04-15T09:14:05;13.90;99.90
10702;DHT22;5402;50.004;8.246;2023-04-15T09:16:55;13.80;99.90
10702;DHT22;5402;50.004;8.246;2023-04-15T09:19:23;13.80;99.90
10702;DHT22;5402;50.004;8.246;2023-04-15T09:21:51;13.90;99.90
10702;DHT22;5402;50.004;8.246;2023-04-15T09:24:20;13.80;99.90
10702;DHT22;5402;50.004;8.246;2023-04-15T09:26:47;13.80;99.90
10702;DHT22;5402;50.004;8.246;2023-04-15T09:29:17;14.00;99.90
10702;DHT22;5402;50.004;8.246;2023-04-15T09:31:44;14.00;98.60
10702;DHT22;5402;50.004;8.246;2023-04-15T09:34:11;14.00;99.50
10702;DHT22;5402;50.004;8.246;2023-04-15T09:36:51;14.00;98.60
10702;DHT22;5402;50.004;8.246;2023-04-15T09:39:19;13.90;98.70
10702;DHT22;5402;50.004;8.246;2023-04-15T09:41:46;13.90;97.90
10702;DHT22;5402;50.004;8.246;2023-04-15T09:44:23;13.80;98.00
10702;DHT22;5402;50.004;8.246;2023-04-15T09:46:50;13.90;98.00
10702;DHT22;5402;50.004;8.246;2023-04-15T09:49:17;13.90;97.10
10702;DHT22;5402;50.004;8.246;2023-04-15T09:51:44;13.90;96.70
10702;DHT22;5402;50.004;8.246;2023-04-15T09:54:11;14.10;96.40
10702;DHT22;5402;50.004;8.246;2023-04-15T09:56:39;14.00;96.30
10702;DHT22;5402;50.004;8.246;2023-04-15T09:59:07;13.90;95.60
10702;DHT22;5402;50.004;8.246;2023-04-15T10:01:34;14.00;96.30
10702;DHT22;5402;50.004;8.246;2023-04-15T10:04:02;14.20;95.40
10702;DHT22;5402;50.004;8.246;2023-04-15T10:06:30;14.20;94.70
10702;DHT22;5402;50.004;8.246;2023-04-15T10:08:57;14.20;94.80
10702;DHT22;5402;50.004;8.246;2023-04-15T10:11:25;14.30;95.50
10702;DHT22;5402;50.004;8.246;2023-04-15T10:13:56;14.20;95.20
10702;DHT22;5402;50.004;8.246;2023-04-15T10:16:26;14.30;95.70
10702;DHT22;5402;50.004;8.246;2023-04-15T10:18:54;14.20;94.60
10702;DHT22;5402;50.004;8.246;2023-04-15T10:21:21;14.20;95.30
10702;DHT22;5402;50.004;8.246;2023-04-15T10:23:49;14.30;95.20
10702;DHT22;5402;50.004;8.246;2023-04-15T10:26:16;14.30;95.30
10702;DHT22;5402;50.004;8.246;2023-04-15T10:28:43;14.40;95.80
10702;DHT22;5402;50.004;8.246;2023-04-15T10:31:13;14.40;95.70
10702;DHT22;5402;50.004;8.246;2023-04-15T10:33:41;14.50;96.10
10702;DHT22;5402;50.004;8.246;2023-04-15T10:36:08;14.90;96.10
10702;DHT22;5402;50.004;8.246;2023-04-15T10:38:36;15.00;95.00
10702;DHT22;5402;50.004;8.246;2023-04-15T10:41:14;15.00;93.80
10702;DHT22;5402;50.004;8.246;2023-04-15T10:43:48;15.00;93.60
10702;DHT22;5402;50.004;8.246;2023-04-15T10:46:22;14.90;93.00
10702;DHT22;5402;50.004;8.246;2023-04-15T10:48:50;14.80;92.60
10702;DHT22;5402;50.004;8.246;2023-04-15T10:51:27;14.70;92.40
10702;DHT22;5402;50.004;8.246;2023-04-15T10:53:58;14.40;93.60
10702;DHT22;5402;50.004;8.246;2023-04-15T10:56:28;14.50;94.10
10702;DHT22;5402;50.004;8.246;2023-04-15T10:58:58;14.50;93.60
10702;DHT22;5402;50.004;8.246;2023-04-15T11:01:49;14.40;93.40
10702;DHT22;5402;50.004;8.246;2023-04-15T11:04:51;14.10;92.60
10702;DHT22;5402;50.004;8.246;2023-04-15T11:07:37;14.20;92.50
10702;DHT22;5402;50.004;8.246;2023-04-15T11:13:32;14.20;92.40
10702;DHT22;5402;50.004;8.246;2023-04-15T11:16:01;14.10;92.40
10702;DHT22;5402;50.004;8.246;2023-04-15T11:18:52;14.00;91.10
10702;DHT22;5402;50.004;8.246;2023-04-15T11:21:19;14.10;91.00
10702;DHT22;5402;50.004;8.246;2023-04-15T11:23:49;14.10;91.90
10702;DHT22;5402;50.004;8.246;2023-04-15T11:26:16;14.40;92.50
10702;DHT22;5402;50.004;8.246;2023-04-15T11:28:44;14.50;91.90
10702;DHT22;5402;50.004;8.246;2023-04-15T11:31:13;14.40;92.10
10702;DHT22;5402;50.004;8.246;2023-04-15T11:33:54;14.70;92.60
10702;DHT22;5402;50.004;8.246;2023-04-15T11:36:23;14.90;92.10
10702;DHT22;5402;50.004;8.246;2023-04-15T11:38:51;14.60;92.30
10702;DHT22;5402;50.004;8.246;2023-04-15T11:41:21;14.50;92.20
10702;DHT22;5402;50.004;8.246;2023-04-15T11:43:48;14.50;92.50
10702;DHT22;5402;50.004;8.246;2023-04-15T11:46:15;14.30;92.90
10702;DHT22;5402;50.004;8.246;2023-04-15T11:48:43;14.30;93.30
10702;DHT22;5402;50.004;8.246;2023-04-15T11:51:12;14.40;93.70
10702;DHT22;5402;50.004;8.246;2023-04-15T11:53:40;14.40;93.60
10702;DHT22;5402;50.004;8.246;2023-04-15T11:56:08;14.20;94.00
10702;DHT22;5402;50.004;8.246;2023-04-15T11:58:37;14.20;94.00
10702;DHT22;5402;50.004;8.246;2023-04-15T12:01:05;14.20;94.60
10702;DHT22;5402;50.004;8.246;2023-04-15T12:03:36;14.00;94.80
10702;DHT22;5402;50.004;8.246;2023-04-15T12:06:17;13.90;95.30
10702;DHT22;5402;50.004;8.246;2023-04-15T12:09:09;14.00;95.80
10702;DHT22;5402;50.004;8.246;2023-04-15T12:11:42;14.10;96.10
10702;DHT22;5402;50.004;8.246;2023-04-15T12:14:12;14.20;96.10
10702;DHT22;5402;50.004;8.246;2023-04-15T12:16:43;14.20;96.50
10702;DHT22;5402;50.004;8.246;2023-04-15T12:19:13;14.00;97.10
10702;DHT22;5402;50.004;8.246;2023-04-15T12:21:45;13.90;97.40
10702;DHT22;5402;50.004;8.246;2023-04-15T12:24:12;14.00;97.60
10702;DHT22;5402;50.004;8.246;2023-04-15T12:26:44;14.10;97.50
10702;DHT22;5402;50.004;8.246;2023-04-15T12:29:12;13.90;98.00
10702;DHT22;5402;50.004;8.246;2023-04-15T12:31:50;13.80;98.30
10702;DHT22;5402;50.004;8.246;2023-04-15T12:34:17;13.70;98.50
10702;DHT22;5402;50.004;8.246;2023-04-15T12:36:46;13.60;99.10
10702;DHT22;5402;50.004;8.246;2023-04-15T12:39:13;13.50;99.30
10702;DHT22;5402;50.004;8.246;2023-04-15T12:41:40;13.70;99.30
10702;DHT22;5402;50.004;8.246;2023-04-15T12:44:06;13.50;99.90
10702;DHT22;5402;50.004;8.246;2023-04-15T12:46:34;13.40;99.90
10702;DHT22;5402;50.004;8.246;2023-04-15T12:49:00;13.60;99.90
10702;DHT22;5402;50.004;8.246;2023-04-15T12:51:27;13.40;99.90
10702;DHT22;5402;50.004;8.246;2023-04-15T12:53:55;13.60;99.90
10702;DHT22;5402;50.004;8.246;2023-04-15T12:56:22;13.80;99.90
10702;DHT22;5402;50.004;8.246;2023-04-15T12:58:49;13.80;99.90
10702;DHT22;5402;50.004;8.246;2023-04-15T13:01:16;13.90;99.90
10702;DHT22;5402;50.004;8.246;2023-04-15T13:03:43;14.00;99.90
10702;DHT22;5402;50.004;8.246;2023-04-15T13:06:09;14.30;99.90
10702;DHT22;5402;50.004;8.246;2023-04-15T13:08:36;14.30;99.90
10702;DHT22;5402;50.004;8.246;2023-04-15T13:11:04;14.00;99.90
10702;DHT22;5402;50.004;8.246;2023-04-15T13:13:31;13.80;99.90
10702;DHT22;5402;50.004;8.246;2023-04-15T13:15:58;13.70;99.90
10702;DHT22;5402;50.004;8.246;2023-04-15T13:18:27;13.60;99.90
10702;DHT22;5402;50.004;8.246;2023-04-15T13:20:55;13.50;99.90
10702;DHT22;5402;50.004;8.246;2023-04-15T13:23:22;13.20;99.90
10702;DHT22;5402;50.004;8.246;2023-04-15T13:25:49;13.10;99.90
10702;DHT22;5402;50.004;8.246;2023-04-15T13:28:18;12.80;99.90
10702;DHT22;5402;50.004;8.246;2023-04-15T13:30:44;13.00;99.90
10702;DHT22;5402;50.004;8.246;2023-04-15T13:33:13;13.00;99.90
10702;DHT22;5402;50.004;8.246;2023-04-15T13:35:40;13.00;99.90
10702;DHT22;5402;50.004;8.246;2023-04-15T13:38:07;13.10;99.90
10702;DHT22;5402;50.004;8.246;2023-04-15T13:40:33;12.90;99.90
10702;DHT22;5402;50.004;8.246;2023-04-15T13:43:00;12.90;99.90
10702;DHT22;5402;50.004;8.246;2023-04-15T13:45:29;12.90;99.90
10702;DHT22;5402;50.004;8.246;2023-04-15T13:47:55;12.50;99.90
10702;DHT22;5402;50.004;8.246;2023-04-15T13:50:22;12.80;99.90
10702;DHT22;5402;50.004;8.246;2023-04-15T13:52:49;12.80;99.90
10702;DHT22;5402;50.004;8.246;2023-04-15T13:55:16;12.80;99.90
10702;DHT22;5402;50.004;8.246;2023-04-15T13:57:43;12.60;99.90
10702;DHT22;5402;50.004;8.246;2023-04-15T14:00:11;12.60;99.90
10702;DHT22;5402;50.004;8.246;2023-04-15T14:02:39;12.50;99.90
10702;DHT22;5402;50.004;8.246;2023-04-15T14:05:07;12.30;99.90
10702;DHT22;5402;50.004;8.246;2023-04-15T14:07:34;12.30;99.90
10702;DHT22;5402;50.004;8.246;2023-04-15T14:10:01;12.00;99.90
10702;DHT22;5402;50.004;8.246;2023-04-15T14:12:27;12.10;99.90
10702;DHT22;5402;50.004;8.246;2023-04-15T14:14:54;12.20;99.90
10702;DHT22;5402;50.004;8.246;2023-04-15T14:17:21;12.10;99.90
10702;DHT22;5402;50.004;8.246;2023-04-15T14:19:49;12.10;99.90
10702;DHT22;5402;50.004;8.246;2023-04-15T14:22:15;12.00;99.90
10702;DHT22;5402;50.004;8.246;2023-04-15T14:24:43;12.00;99.90
10702;DHT22;5402;50.004;8.246;2023-04-15T14:27:10;11.90;99.90
10702;DHT22;5402;50.004;8.246;2023-04-15T14:29:37;11.80;99.90
10702;DHT22;5402;50.004;8.246;2023-04-15T14:32:04;11.70;99.90
10702;DHT22;5402;50.004;8.246;2023-04-15T14:34:31;11.60;99.90
10702;DHT22;5402;50.004;8.246;2023-04-15T14:36:59;11.50;99.90
10702;DHT22;5402;50.004;8.246;2023-04-15T14:39:26;11.40;99.90
10702;DHT22;5402;50.004;8.246;2023-04-15T14:41:53;11.30;99.90
10702;DHT22;5402;50.004;8.246;2023-04-15T14:44:20;11.30;99.90
10702;DHT22;5402;50.004;8.246;2023-04-15T14:46:47;11.30;99.90
10702;DHT22;5402;50.004;8.246;2023-04-15T14:49:14;11.30;99.90
10702;DHT22;5402;50.004;8.246;2023-04-15T14:51:41;11.50;99.90
10702;DHT22;5402;50.004;8.246;2023-04-15T14:54:09;11.40;99.90
10702;DHT22;5402;50.004;8.246;2023-04-15T14:56:36;11.30;99.90
10702;DHT22;5402;50.004;8.246;2023-04-15T14:59:03;11.40;99.90
10702;DHT22;5402;50.004;8.246;2023-04-15T15:01:30;11.30;99.90
10702;DHT22;5402;50.004;8.246;2023-04-15T15:03:57;11.30;99.90
10702;DHT22;5402;50.004;8.246;2023-04-15T15:06:23;11.30;99.90
10702;DHT22;5402;50.004;8.246;2023-04-15T15:08:50;11.10;99.90
10702;DHT22;5402;50.004;8.246;2023-04-15T15:11:18;11.00;99.90
10702;DHT22;5402;50.004;8.246;2023-04-15T15:13:45;11.10;99.90
10702;DHT22;5402;50.004;8.246;2023-04-15T15:16:12;11.00;99.90
10702;DHT22;5402;50.004;8.246;2023-04-15T15:18:39;11.10;99.90
10702;DHT22;5402;50.004;8.246;2023-04-15T15:21:05;11.00;99.90
10702;DHT22;5402;50.004;8.246;2023-04-15T15:23:32;10.80;99.90
10702;DHT22;5402;50.004;8.246;2023-04-15T15:25:59;10.80;99.90
10702;DHT22;5402;50.004;8.246;2023-04-15T15:28:28;10.90;99.90
10702;DHT22;5402;50.004;8.246;2023-04-15T15:30:55;10.80;99.90
10702;DHT22;5402;50.004;8.246;2023-04-15T15:33:21;10.80;99.90
10702;DHT22;5402;50.004;8.246;2023-04-15T15:35:49;10.80;99.90
10702;DHT22;5402;50.004;8.246;2023-04-15T15:38:16;10.70;99.90
10702;DHT22;5402;50.004;8.246;2023-04-15T15:40:43;10.50;99.90
10702;DHT22;5402;50.004;8.246;2023-04-15T15:43:10;10.60;99.90
10702;DHT22;5402;50.004;8.246;2023-04-15T15:45:39;10.50;99.90
10702;DHT22;5402;50.004;8.246;2023-04-15T15:48:06;10.50;99.90
10702;DHT22;5402;50.004;8.246;2023-04-15T15:50:33;10.40;99.90
10702;DHT22;5402;50.004;8.246;2023-04-15T15:52:59;10.30;99.90
10702;DHT22;5402;50.004;8.246;2023-04-15T15:55:26;10.30;99.90
10702;DHT22;5402;50.004;8.246;2023-04-15T15:57:53;10.30;99.90
10702;DHT22;5402;50.004;8.246;2023-04-15T16:00:20;10.30;99.90
10702;DHT22;5402;50.004;8.246;2023-04-15T16:02:48;10.30;99.90
10702;DHT22;5402;50.004;8.246;2023-04-15T16:05:15;10.30;99.90